sensor_id;sensor_type;location;lat;lon;timestamp;P1;durP1;ratioP1;P2;durP2;ratioP2
16737;SDS011;17906;47.684;10.806;2023-07-20T00:02:02;7.13;;;3.65;;
16737;SDS011;17906;47.684;10.806;2023-07-20T00:04:30;10.18;;;4.20;;
16737;SDS011;17906;47.684;10.806;2023-07-20T00:06:57;7.03;;;3.22;;
16737;SDS011;17906;47.684;10.806;2023-07-20T00:09:24;9.80;;;3.47;;
16737;SDS011;17906;47.684;10.806;2023-07-20T00:11:50;7.30;;;3.00;;
16737;SDS011;17906;47.684;10.806;2023-07-20T00:14:18;8.05;;;3.53;;
16737;SDS011;17906;47.684;10.806;2023-07-20T00:16:47;10.75;;;3.60;;
16737;SDS011;17906;47.684;10.806;2023-07-20T00:19:21;6.40;;;3.10;;
16737;SDS011;17906;47.684;10.806;2023-07-20T00:21:47;5.78;;;3.35;;
16737;SDS011;17906;47.684;10.806;2023-07-20T00:24:14;8.02;;;3.70;;
16737;SDS011;17906;47.684;10.806;2023-07-20T00:26:41;7.50;;;3.38;;
16737;SDS011;17906;47.684;10.806;2023-07-20T00:29:07;5.70;;;3.50;;
16737;SDS011;17906;47.684;10.806;2023-07-20T00:31:34;5.88;;;3.75;;
16737;SDS011;17906;47.684;10.806;2023-07-20T00:34:04;6.38;;;3.30;;
16737;SDS011;17906;47.684;10.806;2023-07-20T00:36:31;6.45;;;3.42;;
16737;SDS011;17906;47.684;10.806;2023-07-20T00:38:57;6.88;;;3.20;;
16737;SDS011;17906;47.684;10.806;2023-07-20T00:41:24;6.50;;;3.60;;
16737;SDS011;17906;47.684;10.806;2023-07-20T00:43:54;7.32;;;3.40;;
16737;SDS011;17906;47.684;10.806;2023-07-20T00:46:21;6.35;;;3.20;;
16737;SDS011;17906;47.684;10.806;2023-07-20T00:48:49;7.78;;;3.70;;
16737;SDS011;17906;47.684;10.806;2023-07-20T00:51:17;6.40;;;3.25;;
16737;SDS011;17906;47.684;10.806;2023-07-20T00:53:44;6.57;;;3.22;;
16737;SDS011;17906;47.684;10.806;2023-07-20T00:56:11;5.32;;;3.22;;
16737;SDS011;17906;47.684;10.806;2023-07-20T00:58:38;6.18;;;3.42;;
16737;SDS011;17906;47.684;10.806;2023-07-20T01:01:04;5.80;;;2.83;;
16737;SDS011;17906;47.684;10.806;2023-07-20T01:03:31;6.55;;;3.40;;
16737;SDS011;17906;47.684;10.806;2023-07-20T01:05:59;7.60;;;4.22;;
16737;SDS011;17906;47.684;10.806;2023-07-20T01:08:38;4.07;;;3.00;;
16737;SDS011;17906;47.684;10.806;2023-07-20T01:11:10;6.25;;;3.42;;
16737;SDS011;17906;47.684;10.806;2023-07-20T01:13:43;7.28;;;3.00;;
16737;SDS011;17906;47.684;10.806;2023-07-20T01:16:10;5.65;;;3.28;;
16737;SDS011;17906;47.684;10.806;2023-07-20T01:18:36;4.15;;;2.70;;
16737;SDS011;17906;47.684;10.806;2023-07-20T01:21:06;5.30;;;2.85;;
16737;SDS011;17906;47.684;10.806;2023-07-20T01:26:58;5.93;;;2.90;;
16737;SDS011;17906;47.684;10.806;2023-07-20T01:29:35;10.05;;;4.20;;
16737;SDS011;17906;47.684;10.806;2023-07-20T01:32:18;7.00;;;3.17;;
16737;SDS011;17906;47.684;10.806;2023-07-20T01:34:48;4.00;;;2.38;;
16737;SDS011;17906;47.684;10.806;2023-07-20T01:37:17;6.00;;;2.95;;
16737;SDS011;17906;47.684;10.806;2023-07-20T01:39:50;9.98;;;2.80;;
16737;SDS011;17906;47.684;10.806;2023-07-20T01:42:20;5.57;;;2.92;;
16737;SDS011;17906;47.684;10.806;2023-07-20T01:44:47;5.32;;;2.97;;
16737;SDS011;17906;47.684;10.806;2023-07-20T01:47:14;6.57;;;3.10;;
16737;SDS011;17906;47.684;10.806;2023-07-20T01:49:42;3.22;;;2.65;;
16737;SDS011;17906;47.684;10.806;2023-07-20T01:52:09;4.43;;;2.45;;
16737;SDS011;17906;47.684;10.806;2023-07-20T01:54:36;5.45;;;2.50;;
16737;SDS011;17906;47.684;10.806;2023-07-20T01:57:03;4.20;;;2.58;;
16737;SDS011;17906;47.684;10.806;2023-07-20T01:59:29;5.75;;;2.50;;
16737;SDS011;17906;47.684;10.806;2023-07-20T02:01:56;6.00;;;2.85;;
16737;SDS011;17906;47.684;10.806;2023-07-20T02:04:23;5.63;;;3.00;;
16737;SDS011;17906;47.684;10.806;2023-07-20T02:06:51;5.03;;;2.78;;
16737;SDS011;17906;47.684;10.806;2023-07-20T02:09:17;5.18;;;2.30;;
16737;SDS011;17906;47.684;10.806;2023-07-20T02:11:45;5.07;;;2.63;;
16737;SDS011;17906;47.684;10.806;2023-07-20T02:14:11;5.68;;;2.38;;
16737;SDS011;17906;47.684;10.806;2023-07-20T02:16:38;6.55;;;2.70;;
16737;SDS011;17906;47.684;10.806;2023-07-20T02:19:04;3.80;;;2.42;;
16737;SDS011;17906;47.684;10.806;2023-07-20T02:21:32;4.75;;;2.75;;
16737;SDS011;17906;47.684;10.806;2023-07-20T02:24:00;6.47;;;2.60;;
16737;SDS011;17906;47.684;10.806;2023-07-20T02:26:27;5.68;;;2.40;;
16737;SDS011;17906;47.684;10.806;2023-07-20T02:28:53;5.40;;;2.55;;
16737;SDS011;17906;47.684;10.806;2023-07-20T02:31:20;4.72;;;2.92;;
16737;SDS011;17906;47.684;10.806;2023-07-20T02:33:47;4.35;;;2.70;;
16737;SDS011;17906;47.684;10.806;2023-07-20T02:36:13;4.68;;;2.58;;
16737;SDS011;17906;47.684;10.806;2023-07-20T02:38:41;6.18;;;2.55;;
16737;SDS011;17906;47.684;10.806;2023-07-20T02:41:09;8.30;;;2.72;;
16737;SDS011;17906;47.684;10.806;2023-07-20T02:43:36;5.38;;;2.85;;
16737;SDS011;17906;47.684;10.806;2023-07-20T02:46:03;4.13;;;2.60;;
16737;SDS011;17906;47.684;10.806;2023-07-20T02:48:29;3.28;;;2.50;;
16737;SDS011;17906;47.684;10.806;2023-07-20T02:50:56;5.93;;;2.67;;
16737;SDS011;17906;47.684;10.806;2023-07-20T02:53:23;7.20;;;2.60;;
16737;SDS011;17906;47.684;10.806;2023-07-20T02:55:49;9.40;;;2.90;;
16737;SDS011;17906;47.684;10.806;2023-07-20T02:58:17;5.88;;;2.70;;
16737;SDS011;17906;47.684;10.806;2023-07-20T03:00:44;6.97;;;2.95;;
16737;SDS011;17906;47.684;10.806;2023-07-20T03:03:11;6.82;;;2.63;;
16737;SDS011;17906;47.684;10.806;2023-07-20T03:05:40;7.03;;;2.78;;
16737;SDS011;17906;47.684;10.806;2023-07-20T03:08:07;6.57;;;2.70;;
16737;SDS011;17906;47.684;10.806;2023-07-20T03:10:37;6.75;;;3.00;;
16737;SDS011;17906;47.684;10.806;2023-07-20T03:13:04;4.75;;;2.80;;
16737;SDS011;17906;47.684;10.806;2023-07-20T03:15:33;5.05;;;2.30;;
16737;SDS011;17906;47.684;10.806;2023-07-20T03:18:00;3.90;;;2.50;;
16737;SDS011;17906;47.684;10.806;2023-07-20T03:20:28;7.25;;;2.30;;
16737;SDS011;17906;47.684;10.806;2023-07-20T03:22:55;7.47;;;2.63;;
16737;SDS011;17906;47.684;10.806;2023-07-20T03:25:21;7.28;;;2.33;;
16737;SDS011;17906;47.684;10.806;2023-07-20T03:27:48;6.32;;;2.38;;
16737;SDS011;17906;47.684;10.806;2023-07-20T03:30:15;5.13;;;2.38;;
16737;SDS011;17906;47.684;10.806;2023-07-20T03:32:43;4.68;;;2.25;;
16737;SDS011;17906;47.684;10.806;2023-07-20T03:35:10;5.70;;;2.17;;
16737;SDS011;17906;47.684;10.806;2023-07-20T03:37:37;5.78;;;2.00;;
16737;SDS011;17906;47.684;10.806;2023-07-20T03:40:04;5.25;;;2.35;;
16737;SDS011;17906;47.684;10.806;2023-07-20T03:42:32;5.40;;;2.30;;
16737;SDS011;17906;47.684;10.806;2023-07-20T03:44:59;2.88;;;2.05;;
16737;SDS011;17906;47.684;10.806;2023-07-20T03:47:26;6.65;;;2.15;;
16737;SDS011;17906;47.684;10.806;2023-07-20T03:49:54;4.85;;;2.38;;
16737;SDS011;17906;47.684;10.806;2023-07-20T03:52:20;5.97;;;2.20;;
16737;SDS011;17906;47.684;10.806;2023-07-20T03:54:47;6.13;;;2.30;;
16737;SDS011;17906;47.684;10.806;2023-07-20T03:57:13;3.90;;;2.33;;
16737;SDS011;17906;47.684;10.806;2023-07-20T03:59:44;7.28;;;1.80;;
16737;SDS011;17906;47.684;10.806;2023-07-20T04:02:11;3.17;;;2.08;;
16737;SDS011;17906;47.684;10.806;2023-07-20T04:04:38;5.97;;;2.20;;
16737;SDS011;17906;47.684;10.806;2023-07-20T04:07:07;4.75;;;2.40;;
16737;SDS011;17906;47.684;10.806;2023-07-20T04:09:34;4.95;;;2.25;;
16737;SDS011;17906;47.684;10.806;2023-07-20T04:12:00;3.63;;;1.92;;
16737;SDS011;17906;47.684;10.806;2023-07-20T04:14:27;3.97;;;2.17;;
16737;SDS011;17906;47.684;10.806;2023-07-20T04:16:53;11.85;;;1.88;;
16737;SDS011;17906;47.684;10.806;2023-07-20T04:19:20;4.40;;;1.83;;
16737;SDS011;17906;47.684;10.806;2023-07-20T04:21:47;6.72;;;2.10;;
16737;SDS011;17906;47.684;10.806;2023-07-20T04:24:14;5.38;;;2.20;;
16737;SDS011;17906;47.684;10.806;2023-07-20T04:26:41;6.88;;;2.45;;
16737;SDS011;17906;47.684;10.806;2023-07-20T04:29:08;5.53;;;2.20;;
16737;SDS011;17906;47.684;10.806;2023-07-20T04:31:35;5.57;;;2.13;;
16737;SDS011;17906;47.684;10.806;2023-07-20T04:34:02;5.97;;;2.05;;
16737;SDS011;17906;47.684;10.806;2023-07-20T04:36:28;4.85;;;2.38;;
16737;SDS011;17906;47.684;10.806;2023-07-20T04:38:55;7.15;;;3.40;;
16737;SDS011;17906;47.684;10.806;2023-07-20T04:41:22;10.30;;;5.05;;
16737;SDS011;17906;47.684;10.806;2023-07-20T04:43:50;5.15;;;2.40;;
16737;SDS011;17906;47.684;10.806;2023-07-20T04:46:17;5.20;;;2.10;;
16737;SDS011;17906;47.684;10.806;2023-07-20T04:48:44;3.80;;;2.13;;
16737;SDS011;17906;47.684;10.806;2023-07-20T04:51:10;5.63;;;2.45;;
16737;SDS011;17906;47.684;10.806;2023-07-20T04:53:37;4.75;;;2.17;;
16737;SDS011;17906;47.684;10.806;2023-07-20T04:56:03;5.90;;;1.90;;
16737;SDS011;17906;47.684;10.806;2023-07-20T04:58:31;4.53;;;1.95;;
16737;SDS011;17906;47.684;10.806;2023-07-20T05:00:58;5.70;;;2.30;;
16737;SDS011;17906;47.684;10.806;2023-07-20T05:03:24;4.10;;;2.15;;
16737;SDS011;17906;47.684;10.806;2023-07-20T05:05:52;6.95;;;2.10;;
16737;SDS011;17906;47.684;10.806;2023-07-20T05:08:19;5.70;;;2.15;;
16737;SDS011;17906;47.684;10.806;2023-07-20T05:10:47;4.53;;;2.17;;
16737;SDS011;17906;47.684;10.806;2023-07-20T05:13:14;3.97;;;2.38;;
16737;SDS011;17906;47.684;10.806;2023-07-20T05:15:42;4.10;;;2.20;;
16737;SDS011;17906;47.684;10.806;2023-07-20T05:18:08;5.50;;;2.05;;
16737;SDS011;17906;47.684;10.806;2023-07-20T05:20:35;6.57;;;2.47;;
16737;SDS011;17906;47.684;10.806;2023-07-20T05:23:02;3.65;;;2.00;;
16737;SDS011;17906;47.684;10.806;2023-07-20T05:25:29;8.63;;;2.15;;
16737;SDS011;17906;47.684;10.806;2023-07-20T05:27:56;4.65;;;2.22;;
16737;SDS011;17906;47.684;10.806;2023-07-20T05:30:22;3.63;;;2.20;;
16737;SDS011;17906;47.684;10.806;2023-07-20T05:32:51;8.48;;;2.28;;
16737;SDS011;17906;47.684;10.806;2023-07-20T05:35:19;4.82;;;2.28;;
16737;SDS011;17906;47.684;10.806;2023-07-20T05:37:47;6.22;;;2.70;;
16737;SDS011;17906;47.684;10.806;2023-07-20T05:40:14;5.25;;;2.33;;
16737;SDS011;17906;47.684;10.806;2023-07-20T05:42:43;4.47;;;2.40;;
16737;SDS011;17906;47.684;10.806;2023-07-20T05:45:12;5.32;;;2.72;;
16737;SDS011;17906;47.684;10.806;2023-07-20T05:47:39;7.57;;;2.88;;
16737;SDS011;17906;47.684;10.806;2023-07-20T05:50:08;6.13;;;2.40;;
16737;SDS011;17906;47.684;10.806;2023-07-20T05:52:35;4.47;;;2.53;;
16737;SDS011;17906;47.684;10.806;2023-07-20T05:55:04;4.22;;;2.55;;
16737;SDS011;17906;47.684;10.806;2023-07-20T05:57:31;4.90;;;2.92;;
16737;SDS011;17906;47.684;10.806;2023-07-20T05:59:58;7.88;;;2.80;;
16737;SDS011;17906;47.684;10.806;2023-07-20T06:02:25;4.13;;;2.60;;
16737;SDS011;17906;47.684;10.806;2023-07-20T06:04:52;6.38;;;3.10;;
16737;SDS011;17906;47.684;10.806;2023-07-20T06:07:21;3.40;;;2.20;;
16737;SDS011;17906;47.684;10.806;2023-07-20T06:09:47;7.28;;;2.58;;
16737;SDS011;17906;47.684;10.806;2023-07-20T06:12:14;7.07;;;2.70;;
16737;SDS011;17906;47.684;10.806;2023-07-20T06:14:40;7.05;;;2.67;;
16737;SDS011;17906;47.684;10.806;2023-07-20T06:17:07;4.45;;;2.60;;
16737;SDS011;17906;47.684;10.806;2023-07-20T06:19:34;8.73;;;3.00;;
16737;SDS011;17906;47.684;10.806;2023-07-20T06:22:01;6.00;;;3.17;;
16737;SDS011;17906;47.684;10.806;2023-07-20T06:24:29;8.63;;;2.60;;
16737;SDS011;17906;47.684;10.806;2023-07-20T06:26:56;4.70;;;2.65;;
16737;SDS011;17906;47.684;10.806;2023-07-20T06:29:23;6.68;;;3.45;;
16737;SDS011;17906;47.684;10.806;2023-07-20T06:31:49;7.70;;;3.40;;
16737;SDS011;17906;47.684;10.806;2023-07-20T06:34:16;4.05;;;2.40;;
16737;SDS011;17906;47.684;10.806;2023-07-20T06:36:43;5.38;;;2.70;;
16737;SDS011;17906;47.684;10.806;2023-07-20T06:39:09;7.20;;;3.10;;
16737;SDS011;17906;47.684;10.806;2023-07-20T06:41:38;3.78;;;2.40;;
16737;SDS011;17906;47.684;10.806;2023-07-20T06:44:04;5.90;;;2.35;;
16737;SDS011;17906;47.684;10.806;2023-07-20T06:46:33;4.68;;;2.60;;
16737;SDS011;17906;47.684;10.806;2023-07-20T06:48:59;5.10;;;2.20;;
16737;SDS011;17906;47.684;10.806;2023-07-20T06:51:26;5.47;;;2.40;;
16737;SDS011;17906;47.684;10.806;2023-07-20T06:53:53;3.58;;;2.20;;
16737;SDS011;17906;47.684;10.806;2023-07-20T06:56:20;3.40;;;2.45;;
16737;SDS011;17906;47.684;10.806;2023-07-20T06:58:48;4.63;;;2.10;;
16737;SDS011;17906;47.684;10.806;2023-07-20T07:01:14;6.72;;;2.15;;
16737;SDS011;17906;47.684;10.806;2023-07-20T07:03:42;5.22;;;1.98;;
16737;SDS011;17906;47.684;10.806;2023-07-20T07:06:09;4.32;;;2.60;;
16737;SDS011;17906;47.684;10.806;2023-07-20T07:08:35;6.57;;;3.00;;
16737;SDS011;17906;47.684;10.806;2023-07-20T07:11:02;7.20;;;2.92;;
16737;SDS011;17906;47.684;10.806;2023-07-20T07:13:29;5.60;;;2.70;;
16737;SDS011;17906;47.684;10.806;2023-07-20T07:15:57;5.07;;;2.90;;
16737;SDS011;17906;47.684;10.806;2023-07-20T07:18:23;4.38;;;2.50;;
16737;SDS011;17906;47.684;10.806;2023-07-20T07:20:51;5.22;;;2.60;;
16737;SDS011;17906;47.684;10.806;2023-07-20T07:23:18;5.70;;;2.67;;
16737;SDS011;17906;47.684;10.806;2023-07-20T07:25:45;7.65;;;2.90;;
16737;SDS011;17906;47.684;10.806;2023-07-20T07:28:12;4.80;;;2.38;;
16737;SDS011;17906;47.684;10.806;2023-07-20T07:30:39;8.02;;;2.30;;
16737;SDS011;17906;47.684;10.806;2023-07-20T07:33:07;3.58;;;2.30;;
16737;SDS011;17906;47.684;10.806;2023-07-20T07:35:35;3.35;;;2.33;;
16737;SDS011;17906;47.684;10.806;2023-07-20T07:38:01;5.63;;;2.17;;
16737;SDS011;17906;47.684;10.806;2023-07-20T07:40:28;3.50;;;2.05;;
16737;SDS011;17906;47.684;10.806;2023-07-20T07:42:55;6.03;;;2.17;;
16737;SDS011;17906;47.684;10.806;2023-07-20T07:45:21;4.03;;;2.13;;
16737;SDS011;17906;47.684;10.806;2023-07-20T07:47:48;3.33;;;2.13;;
16737;SDS011;17906;47.684;10.806;2023-07-20T07:50:16;3.80;;;2.25;;
16737;SDS011;17906;47.684;10.806;2023-07-20T07:52:43;6.35;;;2.50;;
16737;SDS011;17906;47.684;10.806;2023-07-20T07:55:10;11.27;;;2.60;;
16737;SDS011;17906;47.684;10.806;2023-07-20T07:57:36;7.88;;;2.50;;
16737;SDS011;17906;47.684;10.806;2023-07-20T08:00:03;5.65;;;2.38;;
16737;SDS011;17906;47.684;10.806;2023-07-20T08:02:36;8.48;;;2.40;;
16737;SDS011;17906;47.684;10.806;2023-07-20T08:05:02;3.50;;;1.90;;
16737;SDS011;17906;47.684;10.806;2023-07-20T08:07:31;4.03;;;2.38;;
16737;SDS011;17906;47.684;10.806;2023-07-20T08:09:57;6.00;;;2.17;;
16737;SDS011;17906;47.684;10.806;2023-07-20T08:12:25;7.65;;;2.30;;
16737;SDS011;17906;47.684;10.806;2023-07-20T08:14:52;5.55;;;2.55;;
16737;SDS011;17906;47.684;10.806;2023-07-20T08:17:19;4.78;;;1.90;;
16737;SDS011;17906;47.684;10.806;2023-07-20T08:19:45;5.18;;;2.40;;
16737;SDS011;17906;47.684;10.806;2023-07-20T08:22:12;9.15;;;2.20;;
16737;SDS011;17906;47.684;10.806;2023-07-20T08:24:41;6.15;;;2.47;;
16737;SDS011;17906;47.684;10.806;2023-07-20T08:27:08;4.65;;;2.03;;
16737;SDS011;17906;47.684;10.806;2023-07-20T08:29:36;7.63;;;2.30;;
16737;SDS011;17906;47.684;10.806;2023-07-20T08:32:03;5.68;;;2.42;;
16737;SDS011;17906;47.684;10.806;2023-07-20T08:34:30;5.47;;;2.20;;
16737;SDS011;17906;47.684;10.806;2023-07-20T08:36:58;10.43;;;2.60;;
16737;SDS011;17906;47.684;10.806;2023-07-20T08:39:25;6.28;;;2.50;;
16737;SDS011;17906;47.684;10.806;2023-07-20T08:41:53;5.32;;;2.40;;
16737;SDS011;17906;47.684;10.806;2023-07-20T08:44:22;4.97;;;2.15;;
16737;SDS011;17906;47.684;10.806;2023-07-20T08:46:48;6.90;;;3.40;;
16737;SDS011;17906;47.684;10.806;2023-07-20T08:49:15;5.03;;;2.70;;
16737;SDS011;17906;47.684;10.806;2023-07-20T08:51:43;7.50;;;2.75;;
16737;SDS011;17906;47.684;10.806;2023-07-20T08:54:12;6.47;;;2.40;;
16737;SDS011;17906;47.684;10.806;2023-07-20T08:56:40;4.30;;;2.22;;
16737;SDS011;17906;47.684;10.806;2023-07-20T08:59:10;3.13;;;2.05;;
16737;SDS011;17906;47.684;10.806;2023-07-20T09:01:39;5.57;;;2.20;;
16737;SDS011;17906;47.684;10.806;2023-07-20T09:04:06;4.30;;;2.42;;
16737;SDS011;17906;47.684;10.806;2023-07-20T09:06:33;3.63;;;2.10;;
16737;SDS011;17906;47.684;10.806;2023-07-20T09:09:01;7.80;;;2.35;;
16737;SDS011;17906;47.684;10.806;2023-07-20T09:11:29;6.13;;;2.70;;
16737;SDS011;17906;47.684;10.806;2023-07-20T09:14:02;4.43;;;1.98;;
16737;SDS011;17906;47.684;10.806;2023-07-20T09:16:31;4.85;;;2.17;;
16737;SDS011;17906;47.684;10.806;2023-07-20T09:18:57;6.88;;;2.40;;
16737;SDS011;17906;47.684;10.806;2023-07-20T09:21:27;3.80;;;2.22;;
16737;SDS011;17906;47.684;10.806;2023-07-20T09:23:56;4.53;;;1.90;;
16737;SDS011;17906;47.684;10.806;2023-07-20T09:26:22;3.95;;;2.17;;
16737;SDS011;17906;47.684;10.806;2023-07-20T09:28:50;3.30;;;2.00;;
16737;SDS011;17906;47.684;10.806;2023-07-20T09:31:20;5.07;;;2.35;;
16737;SDS011;17906;47.684;10.806;2023-07-20T09:33:49;4.32;;;1.92;;
16737;SDS011;17906;47.684;10.806;2023-07-20T09:36:19;4.88;;;1.80;;
16737;SDS011;17906;47.684;10.806;2023-07-20T09:38:46;6.22;;;2.05;;
16737;SDS011;17906;47.684;10.806;2023-07-20T09:41:13;5.22;;;2.40;;
16737;SDS011;17906;47.684;10.806;2023-07-20T09:43:41;6.40;;;2.45;;
16737;SDS011;17906;47.684;10.806;2023-07-20T09:46:08;6.90;;;2.30;;
16737;SDS011;17906;47.684;10.806;2023-07-20T09:48:35;6.03;;;2.25;;
16737;SDS011;17906;47.684;10.806;2023-07-20T09:51:03;5.47;;;2.05;;
16737;SDS011;17906;47.684;10.806;2023-07-20T09:53:30;3.90;;;2.10;;
16737;SDS011;17906;47.684;10.806;2023-07-20T09:56:00;9.40;;;2.30;;
16737;SDS011;17906;47.684;10.806;2023-07-20T09:58:28;5.90;;;2.50;;
16737;SDS011;17906;47.684;10.806;2023-07-20T10:00:57;5.80;;;2.40;;
16737;SDS011;17906;47.684;10.806;2023-07-20T10:03:29;5.32;;;2.40;;
16737;SDS011;17906;47.684;10.806;2023-07-20T10:05:57;3.72;;;1.98;;
16737;SDS011;17906;47.684;10.806;2023-07-20T10:08:27;5.82;;;2.17;;
16737;SDS011;17906;47.684;10.806;2023-07-20T10:10:57;4.35;;;2.25;;
16737;SDS011;17906;47.684;10.806;2023-07-20T10:13:25;4.20;;;2.13;;
16737;SDS011;17906;47.684;10.806;2023-07-20T10:15:54;5.72;;;2.00;;
16737;SDS011;17906;47.684;10.806;2023-07-20T10:18:25;4.30;;;2.40;;
16737;SDS011;17906;47.684;10.806;2023-07-20T10:20:55;5.75;;;2.03;;
16737;SDS011;17906;47.684;10.806;2023-07-20T10:23:25;5.25;;;2.10;;
16737;SDS011;17906;47.684;10.806;2023-07-20T10:25:54;7.85;;;2.40;;
16737;SDS011;17906;47.684;10.806;2023-07-20T10:28:22;6.75;;;2.05;;
16737;SDS011;17906;47.684;10.806;2023-07-20T10:30:49;7.20;;;2.28;;
16737;SDS011;17906;47.684;10.806;2023-07-20T10:33:16;6.40;;;2.33;;
16737;SDS011;17906;47.684;10.806;2023-07-20T10:35:50;4.22;;;2.30;;
16737;SDS011;17906;47.684;10.806;2023-07-20T10:38:17;4.32;;;2.20;;
16737;SDS011;17906;47.684;10.806;2023-07-20T10:40:54;4.97;;;2.22;;
16737;SDS011;17906;47.684;10.806;2023-07-20T10:43:22;4.95;;;2.30;;
16737;SDS011;17906;47.684;10.806;2023-07-20T10:45:49;3.72;;;1.88;;
16737;SDS011;17906;47.684;10.806;2023-07-20T10:48:17;4.47;;;2.10;;
16737;SDS011;17906;47.684;10.806;2023-07-20T10:50:45;5.60;;;2.45;;
16737;SDS011;17906;47.684;10.806;2023-07-20T10:53:32;2.60;;;2.05;;
16737;SDS011;17906;47.684;10.806;2023-07-20T10:56:07;4.20;;;2.13;;
16737;SDS011;17906;47.684;10.806;2023-07-20T10:58:38;6.25;;;2.50;;
16737;SDS011;17906;47.684;10.806;2023-07-20T11:01:05;4.93;;;2.47;;
16737;SDS011;17906;47.684;10.806;2023-07-20T11:03:33;5.53;;;2.50;;
16737;SDS011;17906;47.684;10.806;2023-07-20T11:09:03;7.40;;;2.50;;
16737;SDS011;17906;47.684;10.806;2023-07-20T11:11:33;4.20;;;2.28;;
16737;SDS011;17906;47.684;10.806;2023-07-20T11:14:02;3.97;;;2.20;;
16737;SDS011;17906;47.684;10.806;2023-07-20T11:16:33;4.72;;;2.28;;
16737;SDS011;17906;47.684;10.806;2023-07-20T11:19:01;12.63;;;2.72;;
16737;SDS011;17906;47.684;10.806;2023-07-20T11:21:29;5.65;;;2.20;;
16737;SDS011;17906;47.684;10.806;2023-07-20T11:23:57;3.80;;;2.25;;
16737;SDS011;17906;47.684;10.806;2023-07-20T11:26:24;3.65;;;2.20;;
16737;SDS011;17906;47.684;10.806;2023-07-20T11:28:52;4.97;;;2.47;;
16737;SDS011;17906;47.684;10.806;2023-07-20T11:31:19;5.15;;;2.38;;
16737;SDS011;17906;47.684;10.806;2023-07-20T11:33:46;6.38;;;2.40;;
16737;SDS011;17906;47.684;10.806;2023-07-20T11:36:13;8.70;;;2.80;;
16737;SDS011;17906;47.684;10.806;2023-07-20T11:38:41;4.65;;;2.10;;
16737;SDS011;17906;47.684;10.806;2023-07-20T11:41:09;4.38;;;2.28;;
16737;SDS011;17906;47.684;10.806;2023-07-20T11:43:35;3.72;;;2.28;;
16737;SDS011;17906;47.684;10.806;2023-07-20T11:46:05;2.90;;;2.10;;
16737;SDS011;17906;47.684;10.806;2023-07-20T11:48:33;7.20;;;2.60;;
16737;SDS011;17906;47.684;10.806;2023-07-20T11:51:00;6.82;;;2.40;;
16737;SDS011;17906;47.684;10.806;2023-07-20T11:53:26;4.18;;;2.30;;
16737;SDS011;17906;47.684;10.806;2023-07-20T11:55:53;5.50;;;2.17;;
16737;SDS011;17906;47.684;10.806;2023-07-20T11:58:20;3.10;;;2.10;;
16737;SDS011;17906;47.684;10.806;2023-07-20T12:00:47;6.43;;;2.20;;
16737;SDS011;17906;47.684;10.806;2023-07-20T12:03:16;8.63;;;2.47;;
16737;SDS011;17906;47.684;10.806;2023-07-20T12:05:44;5.97;;;2.65;;
16737;SDS011;17906;47.684;10.806;2023-07-20T12:08:11;6.57;;;2.70;;
16737;SDS011;17906;47.684;10.806;2023-07-20T12:10:39;5.03;;;2.20;;
16737;SDS011;17906;47.684;10.806;2023-07-20T12:13:09;3.47;;;2.30;;
16737;SDS011;17906;47.684;10.806;2023-07-20T12:15:36;8.20;;;2.50;;
16737;SDS011;17906;47.684;10.806;2023-07-20T12:18:04;4.15;;;2.00;;
16737;SDS011;17906;47.684;10.806;2023-07-20T12:20:33;6.35;;;2.28;;
16737;SDS011;17906;47.684;10.806;2023-07-20T12:23:02;4.20;;;2.85;;
16737;SDS011;17906;47.684;10.806;2023-07-20T12:28:15;4.22;;;2.40;;
16737;SDS011;17906;47.684;10.806;2023-07-20T12:30:43;4.70;;;2.22;;
16737;SDS011;17906;47.684;10.806;2023-07-20T12:33:10;4.00;;;2.30;;
16737;SDS011;17906;47.684;10.806;2023-07-20T12:35:41;7.97;;;2.45;;
16737;SDS011;17906;47.684;10.806;2023-07-20T12:38:09;3.13;;;2.05;;
16737;SDS011;17906;47.684;10.806;2023-07-20T12:40:36;5.07;;;2.78;;
16737;SDS011;17906;47.684;10.806;2023-07-20T12:43:02;3.05;;;2.08;;
16737;SDS011;17906;47.684;10.806;2023-07-20T12:45:29;3.78;;;2.58;;
16737;SDS011;17906;47.684;10.806;2023-07-20T12:47:56;4.40;;;2.17;;
16737;SDS011;17906;47.684;10.806;2023-07-20T12:50:23;6.50;;;2.58;;
16737;SDS011;17906;47.684;10.806;2023-07-20T12:52:51;3.97;;;2.40;;
16737;SDS011;17906;47.684;10.806;2023-07-20T12:55:18;5.25;;;2.70;;
16737;SDS011;17906;47.684;10.806;2023-07-20T12:57:45;7.80;;;2.70;;
16737;SDS011;17906;47.684;10.806;2023-07-20T13:00:13;4.80;;;2.55;;
16737;SDS011;17906;47.684;10.806;2023-07-20T13:02:41;3.85;;;2.58;;
16737;SDS011;17906;47.684;10.806;2023-07-20T13:05:08;4.22;;;2.42;;
16737;SDS011;17906;47.684;10.806;2023-07-20T13:07:36;4.05;;;2.72;;
16737;SDS011;17906;47.684;10.806;2023-07-20T13:10:06;7.40;;;2.30;;
16737;SDS011;17906;47.684;10.806;2023-07-20T13:12:34;6.68;;;2.38;;
16737;SDS011;17906;47.684;10.806;2023-07-20T13:15:02;4.10;;;2.10;;
16737;SDS011;17906;47.684;10.806;2023-07-20T13:17:31;7.38;;;2.65;;
16737;SDS011;17906;47.684;10.806;2023-07-20T13:19:58;5.47;;;2.58;;
16737;SDS011;17906;47.684;10.806;2023-07-20T13:22:25;5.28;;;2.35;;
16737;SDS011;17906;47.684;10.806;2023-07-20T13:24:52;11.30;;;2.90;;
16737;SDS011;17906;47.684;10.806;2023-07-20T13:27:20;5.90;;;2.65;;
16737;SDS011;17906;47.684;10.806;2023-07-20T13:29:47;4.80;;;2.70;;
16737;SDS011;17906;47.684;10.806;2023-07-20T13:32:14;3.25;;;2.30;;
16737;SDS011;17906;47.684;10.806;2023-07-20T13:34:43;5.28;;;2.50;;
16737;SDS011;17906;47.684;10.806;2023-07-20T13:37:09;4.60;;;2.30;;
16737;SDS011;17906;47.684;10.806;2023-07-20T13:39:36;4.13;;;2.50;;
16737;SDS011;17906;47.684;10.806;2023-07-20T13:42:03;4.38;;;2.65;;
16737;SDS011;17906;47.684;10.806;2023-07-20T13:44:32;4.38;;;2.45;;
16737;SDS011;17906;47.684;10.806;2023-07-20T13:46:59;3.40;;;2.50;;
16737;SDS011;17906;47.684;10.806;2023-07-20T13:49:26;5.75;;;2.63;;
16737;SDS011;17906;47.684;10.806;2023-07-20T13:51:53;7.88;;;3.00;;
16737;SDS011;17906;47.684;10.806;2023-07-20T13:54:19;4.47;;;2.53;;
16737;SDS011;17906;47.684;10.806;2023-07-20T13:56:46;3.50;;;2.55;;
16737;SDS011;17906;47.684;10.806;2023-07-20T13:59:13;6.40;;;2.60;;
16737;SDS011;17906;47.684;10.806;2023-07-20T14:01:41;5.43;;;2.53;;
16737;SDS011;17906;47.684;10.806;2023-07-20T14:04:07;6.43;;;2.70;;
16737;SDS011;17906;47.684;10.806;2023-07-20T14:06:34;3.58;;;2.60;;
16737;SDS011;17906;47.684;10.806;2023-07-20T14:09:01;4.15;;;2.50;;
16737;SDS011;17906;47.684;10.806;2023-07-20T14:11:28;8.45;;;2.88;;
16737;SDS011;17906;47.684;10.806;2023-07-20T14:13:55;7.15;;;2.53;;
16737;SDS011;17906;47.684;10.806;2023-07-20T14:16:23;6.63;;;2.80;;
16737;SDS011;17906;47.684;10.806;2023-07-20T14:18:51;6.07;;;2.63;;
16737;SDS011;17906;47.684;10.806;2023-07-20T14:21:19;4.88;;;2.30;;
16737;SDS011;17906;47.684;10.806;2023-07-20T14:23:46;3.75;;;2.40;;
16737;SDS011;17906;47.684;10.806;2023-07-20T14:26:14;6.50;;;2.47;;
16737;SDS011;17906;47.684;10.806;2023-07-20T14:28:41;4.57;;;2.80;;
16737;SDS011;17906;47.684;10.806;2023-07-20T14:31:07;5.07;;;2.25;;
16737;SDS011;17906;47.684;10.806;2023-07-20T14:33:34;5.70;;;2.67;;
16737;SDS011;17906;47.684;10.806;2023-07-20T14:36:02;4.07;;;2.22;;
16737;SDS011;17906;47.684;10.806;2023-07-20T14:38:30;3.83;;;2.78;;
16737;SDS011;17906;47.684;10.806;2023-07-20T14:40:57;5.40;;;2.40;;
16737;SDS011;17906;47.684;10.806;2023-07-20T14:43:24;4.50;;;2.70;;
16737;SDS011;17906;47.684;10.806;2023-07-20T14:45:51;3.70;;;2.70;;